createdAt,value
2022-12-14T00:19:27.666Z,-1.40
2022-12-14T00:29:21.348Z,-1.40
2022-12-14T00:31:51.095Z,-1.30
2022-12-14T00:34:19.359Z,-1.30
2022-12-14T00:36:48.918Z,-1.30
2022-12-14T00:44:14.348Z,-1.30
2022-12-14T00:46:42.647Z,-1.30
2022-12-14T00:49:11.867Z,-1.30
2022-12-14T00:51:40.071Z,-1.20
2022-12-14T00:54:09.875Z,-1.30
2022-12-14T00:56:38.286Z,-1.30
2022-12-14T01:06:47.639Z,-1.20
2022-12-14T01:11:47.413Z,-1.10
2022-12-14T01:14:19.436Z,-1.10
2022-12-14T01:16:47.970Z,-1.10
2022-12-14T01:19:16.999Z,-1.10
2022-12-14T01:26:43.820Z,-1.10
2022-12-14T01:29:12.903Z,-1.10
2022-12-14T01:36:40.335Z,-1.10
2022-12-14T01:39:13.601Z,-1.10
2022-12-14T01:41:46.678Z,-1.20
2022-12-14T01:44:57.028Z,-1.20
2022-12-14T01:47:42.004Z,-1.10
2022-12-14T01:50:21.338Z,-1.20
2022-12-14T01:52:52.135Z,-1.20
2022-12-14T01:55:24.906Z,-1.20
2022-12-14T01:58:00.518Z,-1.20
2022-12-14T02:03:02.610Z,-1.30
2022-12-14T02:05:34.876Z,-1.30
2022-12-14T02:08:06.085Z,-1.40
2022-12-14T02:10:34.670Z,-1.40
2022-12-14T02:13:14.604Z,-1.40
2022-12-14T02:18:18.884Z,-1.40
2022-12-14T02:21:06.416Z,-1.40
2022-12-14T02:24:20.723Z,-1.40
2022-12-14T02:27:24.386Z,-1.30
2022-12-14T02:33:34.392Z,-1.30
2022-12-14T02:36:10.173Z,-1.30
2022-12-14T02:38:54.511Z,-1.40
2022-12-14T02:41:38.166Z,-1.40
2022-12-14T02:44:18.220Z,-1.40
2022-12-14T02:46:57.514Z,-1.30
2022-12-14T02:49:51.021Z,-1.40
2022-12-14T02:52:38.305Z,-1.30
2022-12-14T02:55:14.092Z,-1.40
2022-12-14T02:57:47.803Z,-1.30
2022-12-14T03:00:17.270Z,-1.40
2022-12-14T03:07:50.980Z,-1.40
2022-12-14T03:15:32.447Z,-1.40
2022-12-14T03:20:36.626Z,-1.40
2022-12-14T03:23:10.025Z,-1.30
2022-12-14T03:25:45.914Z,-1.30
2022-12-14T03:28:23.320Z,-1.30
2022-12-14T03:31:06.878Z,-1.30
2022-12-14T03:33:39.692Z,-1.20
2022-12-14T03:36:15.702Z,-1.20
2022-12-14T03:38:46.547Z,-1.20
2022-12-14T03:41:23.599Z,-1.20
2022-12-14T03:44:09.239Z,-1.20
2022-12-14T03:46:48.499Z,-1.20
2022-12-14T03:49:28.338Z,-1.20
2022-12-14T03:52:04.503Z,-1.20
2022-12-14T03:54:48.040Z,-1.20
2022-12-14T04:00:06.314Z,-1.20
2022-12-14T04:02:50.116Z,-1.10
2022-12-14T04:05:27.682Z,-1.10
2022-12-14T04:08:06.813Z,-1.10
2022-12-14T04:10:58.919Z,-1.10
2022-12-14T04:16:46.438Z,-1.10
2022-12-14T04:19:23.808Z,-1.10
2022-12-14T04:21:57.836Z,-1.10
2022-12-14T04:24:55.915Z,-1.10
2022-12-14T04:27:33.928Z,-1.10
2022-12-14T04:32:36.703Z,-1.10
2022-12-14T04:35:13.322Z,-1.00
2022-12-14T04:37:49.089Z,-1.00
2022-12-14T04:40:23.119Z,-1.00
2022-12-14T04:42:56.650Z,-1.00
2022-12-14T04:45:29.948Z,-1.00
2022-12-14T04:48:09.970Z,-1.00
2022-12-14T04:50:45.478Z,-1.00
2022-12-14T04:53:19.276Z,-1.00
2022-12-14T04:55:53.111Z,-1.00
2022-12-14T04:58:26.763Z,-1.00
2022-12-14T05:01:12.997Z,-1.00
2022-12-14T05:03:52.371Z,-0.90
2022-12-14T05:06:27.559Z,-0.90
2022-12-14T05:09:19.415Z,-0.90
2022-12-14T05:11:54.976Z,-0.90
2022-12-14T05:14:31.766Z,-0.90
2022-12-14T05:17:05.022Z,-0.90
2022-12-14T05:22:08.882Z,-0.80
2022-12-14T05:24:38.536Z,-0.80
2022-12-14T05:27:07.733Z,-0.80
2022-12-14T05:32:05.243Z,-0.80
2022-12-14T05:39:30.957Z,-0.90
2022-12-14T05:42:00.493Z,-0.90
2022-12-14T05:59:22.257Z,-1.00
2022-12-14T06:04:20.461Z,-1.00
2022-12-14T06:06:50.119Z,-1.10
2022-12-14T06:09:19.459Z,-1.10
2022-12-14T06:11:49.260Z,-1.10
2022-12-14T06:14:18.551Z,-1.10
2022-12-14T06:16:48.613Z,-1.10
2022-12-14T06:19:16.959Z,-1.10
2022-12-14T06:21:45.825Z,-1.20
2022-12-14T06:24:14.858Z,-1.20
2022-12-14T06:26:43.535Z,-1.20
2022-12-14T06:29:16.898Z,-1.20
2022-12-14T06:31:49.359Z,-1.20
2022-12-14T06:34:22.360Z,-1.20
2022-12-14T06:41:51.664Z,-1.20
2022-12-14T06:44:20.535Z,-1.20
2022-12-14T06:46:50.290Z,-1.20
2022-12-14T06:49:18.812Z,-1.20
2022-12-14T06:54:17.843Z,-1.30
2022-12-14T06:56:47.816Z,-1.30
2022-12-14T06:59:17.390Z,-1.30
2022-12-14T07:04:21.649Z,-1.40
2022-12-14T07:06:50.884Z,-1.40
2022-12-14T07:11:52.026Z,-1.30
2022-12-14T07:14:20.674Z,-1.30
2022-12-14T07:16:49.242Z,-1.40
2022-12-14T07:19:20.365Z,-1.30
2022-12-14T07:31:45.293Z,-1.30
2022-12-14T07:36:51.553Z,-1.20
2022-12-14T07:41:50.504Z,-1.20
2022-12-14T07:59:18.024Z,-1.10
2022-12-14T08:01:46.999Z,-1.10
2022-12-14T08:06:49.249Z,-1.20
2022-12-14T08:09:20.109Z,-1.10
2022-12-14T08:11:48.803Z,-1.10
2022-12-14T08:14:19.328Z,-1.20
2022-12-14T08:16:49.682Z,-1.20
2022-12-14T08:19:19.352Z,-1.20
2022-12-14T08:21:49.010Z,-1.20
2022-12-14T08:26:49.016Z,-1.10
2022-12-14T08:29:18.952Z,-1.10
2022-12-14T08:34:21.843Z,-1.10
2022-12-14T08:36:51.683Z,-1.00
2022-12-14T08:44:18.771Z,-1.00
2022-12-14T08:49:16.308Z,-1.00
2022-12-14T08:54:14.396Z,-1.00
2022-12-14T09:04:28.671Z,-0.80
2022-12-14T09:06:57.412Z,-0.70
2022-12-14T09:09:27.211Z,-0.70
2022-12-14T09:14:24.029Z,-0.70
2022-12-14T09:16:52.361Z,-0.70
2022-12-14T09:19:20.600Z,-0.80
2022-12-14T09:21:48.947Z,-0.80
2022-12-14T09:26:47.524Z,-0.80
2022-12-14T09:29:17.657Z,-0.80
2022-12-14T09:42:13.649Z,-0.50
2022-12-14T09:44:57.351Z,-0.40
2022-12-14T09:47:32.549Z,-0.40
2022-12-14T09:50:05.446Z,-0.30
2022-12-14T09:52:41.805Z,-0.30
2022-12-14T09:55:21.164Z,-0.20
2022-12-14T09:57:57.324Z,-0.20
2022-12-14T10:03:18.239Z,-0.10
2022-12-14T10:06:08.271Z,-0.10
2022-12-14T10:08:42.960Z,0.00
2022-12-14T10:11:33.227Z,0.00
2022-12-14T10:14:14.201Z,0.10
2022-12-14T10:16:52.729Z,0.10
2022-12-14T10:19:36.067Z,0.20
2022-12-14T10:22:12.522Z,0.20
2022-12-14T10:24:46.102Z,0.20
2022-12-14T10:27:23.761Z,0.30
2022-12-14T10:30:01.332Z,0.30
2022-12-14T10:32:36.313Z,0.40
2022-12-14T10:35:15.564Z,0.40
2022-12-14T10:37:46.950Z,0.50
2022-12-14T10:40:33.707Z,0.60
2022-12-14T10:43:27.228Z,0.70
2022-12-14T10:46:14.540Z,0.80
2022-12-14T10:48:54.447Z,0.90
2022-12-14T10:51:31.378Z,0.90
2022-12-14T10:54:11.178Z,0.90
2022-12-14T10:56:43.240Z,0.80
2022-12-14T10:59:39.604Z,0.70
2022-12-14T11:02:17.126Z,0.80
2022-12-14T11:04:51.402Z,0.70
2022-12-14T11:07:22.730Z,0.60
2022-12-14T11:09:51.210Z,0.60
2022-12-14T11:12:24.228Z,0.50
2022-12-14T11:14:56.675Z,0.50
2022-12-14T11:17:36.080Z,0.40
2022-12-14T11:20:18.426Z,0.50
2022-12-14T11:22:50.321Z,0.40
2022-12-14T11:25:39.008Z,0.40
2022-12-14T11:28:36.146Z,0.30
2022-12-14T11:31:11.829Z,0.30
2022-12-14T11:33:49.937Z,0.20
2022-12-14T11:36:27.324Z,0.20
2022-12-14T11:38:57.315Z,0.20
2022-12-14T11:44:07.289Z,0.20
2022-12-14T11:46:48.506Z,0.30
2022-12-14T11:49:28.070Z,-3.70
2022-12-14T11:52:10.266Z,0.30
2022-12-14T11:54:41.121Z,0.30
2022-12-14T11:57:24.251Z,0.30
2022-12-14T11:59:56.427Z,0.30
2022-12-14T12:02:30.125Z,0.40
2022-12-14T12:05:06.571Z,0.40
2022-12-14T12:07:37.284Z,0.50
2022-12-14T12:10:19.316Z,0.50
2022-12-14T12:12:54.106Z,0.50
2022-12-14T12:15:26.128Z,0.60
2022-12-14T12:18:00.031Z,0.60
2022-12-14T12:20:38.285Z,0.60
2022-12-14T12:23:15.029Z,0.70
2022-12-14T12:25:45.383Z,0.60
2022-12-14T12:28:19.542Z,0.60
2022-12-14T12:30:54.729Z,0.60
2022-12-14T12:33:31.464Z,0.50
2022-12-14T12:36:05.613Z,0.50
2022-12-14T12:44:18.154Z,0.60
2022-12-14T12:47:23.934Z,0.50
2022-12-14T12:52:25.082Z,0.60
2022-12-14T12:54:59.825Z,0.50
2022-12-14T12:57:37.174Z,0.50
2022-12-14T13:00:07.906Z,0.50
2022-12-14T13:02:39.821Z,0.50
2022-12-14T13:05:45.026Z,0.50
2022-12-14T13:08:13.379Z,0.50
2022-12-14T13:11:02.387Z,0.50
2022-12-14T13:13:36.473Z,0.40
2022-12-14T13:16:13.373Z,0.40
2022-12-14T13:19:04.451Z,0.40
2022-12-14T13:21:38.314Z,0.40
2022-12-14T13:24:16.208Z,0.30
2022-12-14T13:27:36.583Z,0.20
2022-12-14T13:30:23.400Z,0.20
2022-12-14T13:33:10.224Z,0.20
2022-12-14T13:35:54.609Z,0.20
2022-12-14T13:38:43.269Z,0.20
2022-12-14T13:41:27.370Z,0.20
2022-12-14T13:44:33.540Z,0.10
2022-12-14T13:47:07.186Z,0.00
2022-12-14T13:49:36.235Z,0.00
2022-12-14T13:54:39.291Z,-0.10
2022-12-14T13:57:14.159Z,-0.10
2022-12-14T13:59:47.419Z,-0.20
2022-12-14T14:02:41.471Z,-0.20
2022-12-14T14:05:46.833Z,-0.20
2022-12-14T14:08:39.314Z,-0.20
2022-12-14T14:11:58.496Z,-0.20
2022-12-14T14:14:45.976Z,-0.20
2022-12-14T14:17:24.812Z,-0.10
2022-12-14T14:19:57.111Z,-0.10
2022-12-14T14:22:28.182Z,-0.20
2022-12-14T14:25:00.896Z,-0.20
2022-12-14T14:27:36.944Z,-0.20
2022-12-14T14:30:27.176Z,-0.20
2022-12-14T14:38:25.436Z,-0.20
2022-12-14T14:41:16.200Z,-0.30
2022-12-14T14:46:39.469Z,-0.30
2022-12-14T14:49:22.478Z,-0.30
2022-12-14T14:55:15.728Z,-0.30
2022-12-14T14:57:55.381Z,-3.70
2022-12-14T15:00:24.229Z,-0.40
2022-12-14T15:02:55.542Z,-0.40
2022-12-14T15:05:44.753Z,-0.40
2022-12-14T15:08:20.813Z,-0.40
2022-12-14T15:13:25.531Z,-0.40
2022-12-14T15:15:56.395Z,-0.40
2022-12-14T15:18:30.301Z,-0.50
2022-12-14T15:21:04.612Z,-0.50
2022-12-14T15:23:37.163Z,-0.50
2022-12-14T15:26:16.934Z,-0.50
2022-12-14T15:28:50.294Z,-0.50
2022-12-14T15:31:21.174Z,-0.60
2022-12-14T15:33:50.848Z,-0.60
2022-12-14T15:36:20.651Z,-0.60
2022-12-14T15:38:53.830Z,-0.60
2022-12-14T15:41:25.184Z,-0.60
2022-12-14T15:46:31.787Z,-0.70
2022-12-14T15:49:04.097Z,-0.70
2022-12-14T15:51:36.312Z,-0.80
2022-12-14T15:54:08.245Z,-0.70
2022-12-14T15:56:39.438Z,-0.80
2022-12-14T15:59:18.682Z,-0.70
2022-12-14T16:01:54.788Z,-0.80
2022-12-14T16:04:29.158Z,-0.80
2022-12-14T16:07:08.683Z,-0.80
2022-12-14T16:09:42.317Z,-1.20
2022-12-14T16:12:20.823Z,-0.90
2022-12-14T16:14:54.258Z,-0.90
2022-12-14T16:17:29.768Z,-0.90
2022-12-14T16:20:02.025Z,-0.90
2022-12-14T16:22:31.904Z,-0.80
2022-12-14T16:25:19.057Z,-0.90
2022-12-14T16:27:50.442Z,-1.00
2022-12-14T16:30:23.969Z,-1.00
2022-12-14T16:33:04.534Z,-1.10
2022-12-14T16:35:37.134Z,-1.10
2022-12-14T16:38:13.116Z,-1.20
2022-12-14T16:40:44.951Z,-1.20
2022-12-14T16:43:32.629Z,-1.20
2022-12-14T16:46:18.566Z,-1.30
2022-12-14T16:49:22.170Z,-1.30
2022-12-14T16:52:07.795Z,-1.40
2022-12-14T16:54:39.103Z,-1.40
2022-12-14T16:57:18.687Z,-1.40
2022-12-14T16:59:49.186Z,-1.50
2022-12-14T17:02:31.345Z,-1.50
2022-12-14T17:05:03.437Z,-1.60
2022-12-14T17:07:34.198Z,-1.60
2022-12-14T17:14:59.924Z,-1.60
2022-12-14T17:17:36.752Z,-1.60
2022-12-14T17:20:11.948Z,-1.60
2022-12-14T17:22:43.557Z,-1.60
2022-12-14T17:30:21.333Z,-1.60
2022-12-14T17:35:22.222Z,-1.60
2022-12-14T17:37:52.701Z,-1.50
2022-12-14T17:42:54.483Z,-1.50
2022-12-14T17:45:25.879Z,-1.50
2022-12-14T17:47:54.704Z,-1.50
2022-12-14T17:50:24.451Z,-1.50
2022-12-14T17:52:54.415Z,-1.60
2022-12-14T17:55:25.901Z,-1.60
2022-12-14T17:57:55.295Z,-1.60
2022-12-14T18:00:43.871Z,-1.70
2022-12-14T18:05:48.317Z,-1.70
2022-12-14T18:08:19.047Z,-1.80
2022-12-14T18:10:49.775Z,-1.80
2022-12-14T18:15:50.562Z,-1.90
2022-12-14T18:18:19.976Z,-1.90
2022-12-14T18:20:54.179Z,-1.90
2022-12-14T18:23:23.938Z,-1.90
2022-12-14T18:25:54.190Z,-1.90
2022-12-14T18:30:55.366Z,-2.00
2022-12-14T18:33:26.967Z,-2.00
2022-12-14T18:35:57.568Z,-2.10
2022-12-14T18:38:27.815Z,-2.10
2022-12-14T18:40:58.702Z,-2.10
2022-12-14T18:43:29.744Z,-2.20
2022-12-14T18:50:57.124Z,-2.30
2022-12-14T18:53:27.923Z,-2.30
2022-12-14T18:55:57.030Z,-2.30
2022-12-14T18:58:28.026Z,-2.40
2022-12-14T19:01:00.030Z,-2.40
2022-12-14T19:03:32.284Z,-2.40
2022-12-14T19:08:56.980Z,-2.50
2022-12-14T19:11:33.118Z,-2.50
2022-12-14T19:19:00.614Z,-2.60
2022-12-14T19:24:01.009Z,-2.70
2022-12-14T19:28:58.553Z,-2.70
2022-12-14T19:41:24.132Z,-2.80
2022-12-14T19:53:49.775Z,-2.90
2022-12-14T19:56:19.706Z,-3.00
2022-12-14T19:58:49.426Z,-3.00
2022-12-14T20:01:18.875Z,-3.00
2022-12-14T20:08:49.216Z,-3.10
2022-12-14T20:21:23.094Z,-3.00
2022-12-14T20:23:51.815Z,-3.10
2022-12-14T20:26:22.687Z,-3.00
2022-12-14T20:33:52.628Z,-3.00
2022-12-14T20:36:22.183Z,-3.00
2022-12-14T20:38:55.985Z,-3.00
2022-12-14T20:43:54.984Z,-3.10
2022-12-14T20:51:25.622Z,-3.10
2022-12-14T21:01:22.764Z,-3.30
2022-12-14T21:03:52.140Z,-3.30
2022-12-14T21:06:24.119Z,-3.30
2022-12-14T21:12:00.685Z,-3.30
2022-12-14T21:14:32.293Z,-3.30
2022-12-14T21:17:03.877Z,-3.30
2022-12-14T21:19:33.006Z,-3.30
2022-12-14T21:25:01.934Z,-3.30
2022-12-14T21:27:21.757Z,-3.30
2022-12-14T21:32:21.803Z,-3.30
2022-12-14T21:39:54.916Z,-3.40
2022-12-14T21:44:55.094Z,-3.30
2022-12-14T21:47:27.610Z,-3.30
2022-12-14T21:49:56.555Z,-3.30
2022-12-14T21:52:27.922Z,-3.30
2022-12-14T22:02:48.656Z,-3.20
2022-12-14T22:15:18.286Z,-3.10
2022-12-14T22:20:18.426Z,-3.00
2022-12-14T22:25:15.798Z,-2.90
2022-12-14T22:27:44.418Z,-2.90
2022-12-14T22:30:18.298Z,-2.90
2022-12-14T22:50:11.772Z,-2.80
2022-12-14T22:52:40.297Z,-2.70
2022-12-14T22:55:10.005Z,-2.70
2022-12-14T22:57:44.213Z,-2.70
2022-12-14T23:00:16.396Z,-2.70
2022-12-14T23:02:48.129Z,-2.70
2022-12-14T23:21:40.428Z,-2.60
2022-12-14T23:38:23.719Z,-2.60
2022-12-14T23:46:41.885Z,-2.70
2022-12-14T23:52:14.427Z,-2.70
2022-12-14T23:55:01.560Z,-2.70
